Time;durP1;ratioP1;P1;durP2;ratioP2;P2;SDS_P1;SDS_P2;PMS_P1;PMS_P2;Temp;Humidity;BMP_temperature;BMP_pressure;BME280_temperature;BME280_humidity;BME280_pressure;Samples;Min_cycle;Max_cycle;Signal;HPM_P1;HPM_P2
2022/01/17 00:00:01;;;;;;;12.50;7.25;;;;;;;20.52;46.89;103097.50;7310349;19;129005;-68
2022/01/17 00:02:28;;;;;;;9.35;7.22;;;;;;;20.51;46.94;103106.91;7310938;19;130741;-67
2022/01/17 00:04:55;;;;;;;10.02;8.15;;;;;;;20.51;46.82;103098.56;7309248;19;130555;-68
2022/01/17 00:07:24;;;;;;;10.05;7.93;;;;;;;20.49;46.50;103102.63;7313349;19;128992;-68
2022/01/17 00:09:51;;;;;;;11.57;8.27;;;;;;;20.47;46.36;103099.19;7307466;19;129167;-69
2022/01/17 00:12:17;;;;;;;9.48;7.80;;;;;;;20.46;46.76;103101.09;7307694;19;130605;-69
2022/01/17 00:14:45;;;;;;;9.50;7.38;;;;;;;20.45;46.79;103108.59;7309635;19;130477;-68
2022/01/17 00:19:46;;;;;;;9.40;7.15;;;;;;;20.45;46.29;103113.28;7310911;19;134082;-69
2022/01/17 00:22:15;;;;;;;10.10;8.02;;;;;;;20.45;46.47;103116.06;7311516;19;130775;-68
2022/01/17 00:24:42;;;;;;;9.27;7.35;;;;;;;20.44;46.34;103120.78;7312483;19;131279;-69
2022/01/17 00:27:09;;;;;;;11.95;7.72;;;;;;;20.43;46.28;103126.56;7309202;19;129976;-69
2022/01/17 00:29:36;;;;;;;11.60;7.97;;;;;;;20.42;46.58;103135.97;7318270;19;128987;-69
2022/01/17 00:32:04;;;;;;;12.07;7.85;;;;;;;20.41;46.52;103126.75;7315706;19;130689;-69
2022/01/17 00:34:31;;;;;;;10.82;7.35;;;;;;;20.41;46.58;103142.56;7318702;19;130796;-69
2022/01/17 00:36:58;;;;;;;12.20;7.85;;;;;;;20.41;46.73;103150.91;7315200;19;129011;-68
2022/01/17 00:39:25;;;;;;;9.20;7.18;;;;;;;20.40;46.38;103155.59;7317073;19;129495;-68
2022/01/17 00:41:51;;;;;;;17.45;7.60;;;;;;;20.39;46.69;103156.66;7314203;19;131355;-68
2022/01/17 00:44:22;;;;;;;11.95;8.13;;;;;;;20.39;46.42;103150.25;7316705;19;130855;-67
2022/01/17 00:46:51;;;;;;;10.25;7.70;;;;;;;20.39;46.79;103141.91;7315814;19;129176;-68
2022/01/17 00:49:19;;;;;;;9.15;7.45;;;;;;;20.38;46.87;103151.31;7315400;19;128924;-67
2022/01/17 00:51:47;;;;;;;9.63;7.38;;;;;;;20.34;47.07;103155.56;7316398;19;130636;-68
2022/01/17 00:54:13;;;;;;;9.70;7.22;;;;;;;20.32;47.04;103160.47;7315043;19;130581;-67
2022/01/17 00:56:40;;;;;;;12.90;7.22;;;;;;;20.29;47.19;103148.72;7318078;19;129390;-67
2022/01/17 00:59:06;;;;;;;13.35;7.32;;;;;;;20.26;46.79;103163.00;7314249;19;129603;-67
2022/01/17 01:01:33;;;;;;;10.55;7.50;;;;;;;20.24;46.82;103142.03;7317529;19;131389;-67
2022/01/17 01:04:00;;;;;;;11.93;7.45;;;;;;;20.22;47.23;103141.38;7314968;19;130957;-67
2022/01/17 01:06:27;;;;;;;12.75;7.95;;;;;;;20.19;46.86;103142.63;7316563;19;128804;-67
2022/01/17 01:08:53;;;;;;;11.70;7.93;;;;;;;20.17;47.03;103155.91;7315784;19;129128;-67
2022/01/17 01:11:20;;;;;;;9.43;7.68;;;;;;;20.15;47.00;103152.44;7316887;19;130715;-67
2022/01/17 01:13:47;;;;;;;9.25;7.65;;;;;;;20.12;47.09;103158.41;7315248;19;135569;-67
2022/01/17 01:19:18;;;;;;;8.80;7.00;;;;;;;20.09;47.07;103164.38;7318406;19;128850;-68
2022/01/17 01:29:48;;;;;;;9.52;7.22;;;;;;;19.99;47.03;103153.59;7315875;19;129323;-66
2022/01/17 01:32:20;;;;;;;10.48;7.85;;;;;;;19.96;47.07;103165.94;7316368;19;132606;-67
2022/01/17 01:34:51;;;;;;;8.98;7.03;;;;;;;19.95;47.41;103167.00;7315332;19;130370;-67
2022/01/17 01:37:18;;;;;;;8.75;6.72;;;;;;;19.94;47.00;103167.22;7319345;19;129276;-68
2022/01/17 01:39:49;;;;;;;10.88;7.35;;;;;;;19.92;47.24;103167.41;7313781;19;129980;-67
2022/01/17 01:42:18;;;;;;;9.90;7.80;;;;;;;19.89;46.99;103170.59;7317161;19;130576;-67
2022/01/17 01:44:50;;;;;;;9.88;7.70;;;;;;;19.88;47.30;103179.97;7314916;19;131653;-68
2022/01/17 01:47:20;;;;;;;10.30;7.45;;;;;;;19.89;47.42;103175.28;7316538;19;128863;-67
2022/01/17 01:49:47;;;;;;;9.23;7.13;;;;;;;19.86;47.15;103162.66;7317252;19;129458;-67
2022/01/17 01:52:14;;;;;;;10.80;7.38;;;;;;;19.85;47.51;103158.16;7314415;19;131269;-67
2022/01/17 01:54:41;;;;;;;8.57;6.80;;;;;;;19.82;47.26;103153.00;7316539;19;132281;-68
2022/01/17 01:57:08;;;;;;;10.18;7.28;;;;;;;19.81;47.54;103163.25;7313933;19;133756;-67
2022/01/17 01:59:37;;;;;;;11.27;7.38;;;;;;;19.82;47.14;103164.09;7319054;19;129531;-67
2022/01/17 02:02:05;;;;;;;10.95;8.10;;;;;;;19.80;47.37;103171.81;7316023;19;130735;-67
2022/01/17 02:04:32;;;;;;;9.10;6.75;;;;;;;19.78;47.31;103166.44;7315832;19;130489;-67
2022/01/17 02:06:59;;;;;;;11.50;7.90;;;;;;;19.77;47.44;103152.75;7315121;19;128813;-68
2022/01/17 02:09:26;;;;;;;8.63;7.03;;;;;;;19.77;47.01;103166.63;7314340;19;129051;-67
2022/01/17 02:11:52;;;;;;;11.00;6.97;;;;;;;19.77;47.15;103177.75;7315833;19;131433;-67
2022/01/17 02:14:19;;;;;;;10.80;7.07;;;;;;;19.76;46.99;103187.13;7313952;19;130842;-67
2022/01/17 02:16:49;;;;;;;9.75;7.70;;;;;;;19.74;47.58;103183.69;7317981;19;129439;-67
2022/01/17 02:19:20;;;;;;;9.82;7.30;;;;;;;19.72;47.05;103195.00;7314452;19;128800;-67
2022/01/17 02:21:48;;;;;;;9.52;7.13;;;;;;;19.71;47.28;103189.63;7317180;19;131863;-67
2022/01/17 02:24:20;;;;;;;10.98;7.30;;;;;;;19.68;47.03;103183.44;7313312;19;130576;-68
2022/01/17 02:26:50;;;;;;;8.13;6.88;;;;;;;19.67;47.23;103173.41;7316828;19;128982;-67
2022/01/17 02:29:17;;;;;;;10.48;7.63;;;;;;;19.65;47.44;103161.63;7316430;19;129007;-68
2022/01/17 02:31:47;;;;;;;10.18;7.38;;;;;;;19.65;47.28;103158.84;7314723;19;130614;-67
2022/01/17 02:34:14;;;;;;;9.18;7.07;;;;;;;19.61;47.31;103154.72;7315664;19;130643;-66
2022/01/17 02:36:41;;;;;;;8.85;7.00;;;;;;;19.62;47.20;103170.34;7312636;19;128924;-67
2022/01/17 02:39:08;;;;;;;9.82;6.68;;;;;;;19.61;47.54;103162.22;7317626;19;130183;-68
2022/01/17 02:41:39;;;;;;;7.93;6.80;;;;;;;19.60;47.27;103161.34;7313617;19;130580;-66
2022/01/17 02:44:07;;;;;;;10.52;7.80;;;;;;;19.58;47.08;103157.91;7314926;19;131280;-67
2022/01/17 02:46:34;;;;;;;9.02;7.15;;;;;;;19.58;47.04;103173.72;7313531;19;128859;-67
2022/01/17 02:49:02;;;;;;;9.25;7.47;;;;;;;19.58;47.36;103174.56;7314974;19;129742;-67
2022/01/17 02:51:29;;;;;;;9.32;7.28;;;;;;;19.56;47.51;103170.28;7314454;19;130962;-67
2022/01/17 02:53:57;;;;;;;8.70;7.03;;;;;;;19.55;47.52;103171.31;7313634;19;130703;-67
2022/01/17 02:56:25;;;;;;;9.18;6.82;;;;;;;19.54;47.29;103159.38;7316433;19;130897;-67
2022/01/17 02:58:53;;;;;;;8.52;6.53;;;;;;;19.53;47.51;103158.50;7313118;19;128863;-67
2022/01/17 03:01:25;;;;;;;7.78;6.40;;;;;;;19.51;47.17;103157.84;7316622;19;132421;-66
2022/01/17 03:03:53;;;;;;;8.95;6.45;;;;;;;19.50;47.08;103161.69;7310400;19;130537;-68
2022/01/17 03:06:19;;;;;;;9.07;6.90;;;;;;;19.50;47.08;103169.16;7315655;19;128787;-67
2022/01/17 03:08:47;;;;;;;8.27;6.32;;;;;;;19.49;47.31;103162.75;7313294;19;129121;-68
2022/01/17 03:11:18;;;;;;;7.32;6.55;;;;;;;19.49;47.28;103170.19;7314075;19;131320;-67
2022/01/17 03:13:47;;;;;;;8.60;6.95;;;;;;;19.48;47.43;103179.59;7315743;19;130804;-67
2022/01/17 03:16:16;;;;;;;7.88;6.32;;;;;;;19.46;47.07;103171.47;7313194;19;129393;-67
2022/01/17 03:18:52;;;;;;;8.55;6.35;;;;;;;19.46;47.05;103171.47;7314716;19;129003;-68
2022/01/17 03:21:20;;;;;;;8.80;6.97;;;;;;;19.45;47.11;103169.75;7312631;19;136689;-67
2022/01/17 03:23:49;;;;;;;8.85;6.80;;;;;;;19.44;47.30;103172.72;7316672;19;130603;-67
2022/01/17 03:26:17;;;;;;;8.23;6.65;;;;;;;19.43;47.21;103171.00;7312208;19;128953;-67
2022/01/17 03:28:44;;;;;;;8.75;6.85;;;;;;;19.41;47.15;103173.13;7313794;19;129335;-68
2022/01/17 03:31:11;;;;;;;9.13;6.57;;;;;;;19.40;47.07;103169.47;7312369;19;130311;-68
2022/01/17 03:33:39;;;;;;;8.05;6.57;;;;;;;19.39;47.04;103153.88;7310582;19;130410;-67
2022/01/17 03:36:06;;;;;;;7.93;6.13;;;;;;;19.41;47.16;103170.34;7314791;19;128627;-68
2022/01/17 03:38:34;;;;;;;9.10;7.05;;;;;;;19.38;47.26;103169.66;7313097;19;131371;-68
2022/01/17 03:41:04;;;;;;;8.52;7.22;;;;;;;19.38;47.09;103163.28;7314823;19;131280;-68
2022/01/17 03:43:31;;;;;;;9.23;6.65;;;;;;;19.36;47.47;103160.69;7309231;19;130529;-65
2022/01/17 03:45:58;;;;;;;7.32;6.47;;;;;;;19.35;47.43;103150.63;7313872;19;129087;-67
2022/01/17 03:48:27;;;;;;;7.85;6.80;;;;;;;19.35;47.01;103156.19;7309964;19;128987;-67
2022/01/17 03:50:55;;;;;;;9.70;6.97;;;;;;;19.34;47.08;103153.63;7314575;19;130611;-68
2022/01/17 03:53:23;;;;;;;7.97;6.57;;;;;;;19.33;47.16;103163.84;7309865;19;131546;-67
2022/01/17 03:55:50;;;;;;;9.73;6.80;;;;;;;19.32;47.21;103158.50;7311467;19;128912;-67
2022/01/17 03:58:18;;;;;;;9.38;6.93;;;;;;;19.31;47.15;103157.66;7310799;19;129727;-67
2022/01/17 04:00:49;;;;;;;8.73;7.10;;;;;;;19.31;47.31;103157.66;7306888;19;131295;-67
2022/01/17 04:03:17;;;;;;;9.55;6.75;;;;;;;19.30;46.92;103164.25;7313968;19;131393;-67
2022/01/17 04:05:45;;;;;;;8.88;6.80;;;;;;;19.30;46.94;103167.03;7317711;19;130122;-67
2022/01/17 04:08:12;;;;;;;6.47;5.75;;;;;;;19.29;47.05;103165.31;7320141;19;128828;-67
2022/01/17 04:10:40;;;;;;;8.68;6.75;;;;;;;19.29;47.37;103165.31;7317190;19;130744;-67
2022/01/17 04:13:10;;;;;;;9.25;6.32;;;;;;;19.28;47.12;103158.03;7319182;19;130947;-67
2022/01/17 04:15:37;;;;;;;10.32;6.72;;;;;;;19.27;47.34;103164.63;7320499;19;128721;-67
2022/01/17 04:18:06;;;;;;;8.75;6.65;;;;;;;19.27;47.31;103161.00;7318573;19;131033;-67
2022/01/17 04:20:34;;;;;;;6.85;5.95;;;;;;;19.24;46.83;103162.25;7321438;19;130770;-68
2022/01/17 04:23:06;;;;;;;7.65;6.30;;;;;;;19.24;47.03;103153.94;7316766;19;131388;-67
2022/01/17 04:25:35;;;;;;;8.95;6.43;;;;;;;19.23;47.22;103152.19;7320295;19;129082;-67
2022/01/17 04:28:03;;;;;;;9.48;6.50;;;;;;;19.22;47.10;103167.13;7317437;19;129178;-67
2022/01/17 04:30:30;;;;;;;8.63;6.50;;;;;;;19.21;47.22;103176.50;7319328;19;130661;-67
2022/01/17 04:32:58;;;;;;;9.65;6.75;;;;;;;19.22;47.21;103172.69;7317302;19;130949;-68
2022/01/17 04:35:27;;;;;;;9.15;6.68;;;;;;;19.21;46.99;103168.19;7318594;19;130873;-69
2022/01/17 04:37:58;;;;;;;8.40;6.95;;;;;;;19.19;46.97;103170.28;7319908;19;129983;-67
2022/01/17 04:40:25;;;;;;;7.80;6.80;;;;;;;19.19;47.10;103173.06;7317109;19;131009;-67
2022/01/17 04:42:55;;;;;;;7.63;6.35;;;;;;;19.18;47.24;103171.34;7319070;19;130407;-67
2022/01/17 04:45:22;;;;;;;8.98;6.70;;;;;;;19.17;46.81;103164.91;7317622;19;130042;-68
2022/01/17 04:47:51;;;;;;;7.65;6.22;;;;;;;19.17;47.15;103156.59;7317674;19;129845;-67
2022/01/17 04:50:22;;;;;;;8.10;6.80;;;;;;;19.16;46.92;103154.03;7315346;19;130659;-68
2022/01/17 04:52:50;;;;;;;9.07;6.57;;;;;;;19.15;46.87;103158.69;7318579;19;130489;-67
2022/01/17 04:55:19;;;;;;;6.95;6.10;;;;;;;19.18;47.08;103163.00;7319902;19;130269;-67
2022/01/17 04:57:47;;;;;;;7.82;6.18;;;;;;;19.22;46.91;103175.44;7315619;19;128988;-67
2022/01/17 05:00:19;;;;;;;7.20;5.93;;;;;;;19.28;47.11;103171.91;7319147;19;133395;-66
2022/01/17 05:02:46;;;;;;;7.63;6.28;;;;;;;19.36;46.88;103166.22;7313299;19;131042;-67
2022/01/17 05:05:14;;;;;;;6.20;5.60;;;;;;;19.47;47.18;103170.41;7314647;19;129155;-67
2022/01/17 05:07:41;;;;;;;6.95;5.90;;;;;;;19.58;46.82;103166.22;7313823;19;129392;-67
2022/01/17 05:10:10;;;;;;;7.35;6.22;;;;;;;19.74;46.32;103179.00;7316926;19;130683;-67
2022/01/17 05:12:38;;;;;;;8.15;5.63;;;;;;;19.87;46.44;103178.25;7318837;19;130610;-68
2022/01/17 05:15:10;;;;;;;8.73;5.85;;;;;;;20.01;46.18;103179.25;7313559;19;129432;-67
2022/01/17 05:17:43;;;;;;;7.10;5.88;;;;;;;20.17;46.02;103183.69;7319795;19;128853;-67
2022/01/17 05:20:10;;;;;;;5.95;5.20;;;;;;;20.36;45.93;103186.78;7312920;19;130600;-67
2022/01/17 05:22:39;;;;;;;7.38;5.25;;;;;;;20.55;45.58;103193.56;7317514;19;130608;-67
2022/01/17 05:25:09;;;;;;;5.35;4.57;;;;;;;20.73;45.13;103193.03;7315016;19;129205;-67
2022/01/17 05:27:38;;;;;;;6.72;4.90;;;;;;;20.93;44.92;103186.72;7317276;19;129383;-67
2022/01/17 05:30:12;;;;;;;5.43;4.63;;;;;;;21.13;44.31;103197.94;7316137;19;130973;-68
2022/01/17 05:32:40;;;;;;;6.50;4.70;;;;;;;21.30;44.15;103203.97;7314447;19;131380;-67
2022/01/17 05:35:07;;;;;;;5.88;4.65;;;;;;;21.42;43.94;103198.69;7316582;19;128941;-67
2022/01/17 05:37:34;;;;;;;6.47;4.75;;;;;;;21.50;44.18;103196.59;7313616;19;129365;-67
2022/01/17 05:40:01;;;;;;;6.03;4.78;;;;;;;21.56;44.07;103186.53;7315752;19;130672;-67
2022/01/17 05:42:28;;;;;;;6.10;4.60;;;;;;;21.59;43.56;103182.47;7313170;19;131255;-67
2022/01/17 05:44:54;;;;;;;5.65;4.80;;;;;;;21.59;43.89;103174.09;7313735;19;128862;-67
2022/01/17 05:47:21;;;;;;;8.93;5.10;;;;;;;21.56;43.58;103185.66;7313373;19;129008;-67
2022/01/17 05:49:48;;;;;;;5.80;5.13;;;;;;;21.54;43.80;103202.59;7314937;19;130672;-67
2022/01/17 05:52:15;;;;;;;5.85;4.55;;;;;;;21.49;44.00;103197.66;7315422;19;130477;-67
2022/01/17 05:54:44;;;;;;;5.78;4.80;;;;;;;21.44;43.77;103202.97;7314110;19;131252;-66
2022/01/17 05:57:12;;;;;;;5.82;4.60;;;;;;;21.38;44.14;103212.16;7316416;19;129381;-68
2022/01/17 05:59:39;;;;;;;5.60;4.45;;;;;;;21.32;44.02;103218.56;7311562;19;135067;-66
2022/01/17 06:02:07;;;;;;;5.75;4.97;;;;;;;21.26;44.02;103219.41;7316456;19;130600;-67
2022/01/17 06:04:33;;;;;;;6.13;5.13;;;;;;;21.18;44.25;103224.06;7312107;19;129949;-67
2022/01/17 06:07:01;;;;;;;7.00;5.00;;;;;;;21.12;44.30;103212.91;7315473;19;129221;-67
2022/01/17 06:09:28;;;;;;;7.22;5.20;;;;;;;21.06;44.09;103220.16;7312751;19;130806;-67
2022/01/17 06:11:56;;;;;;;6.47;4.95;;;;;;;20.99;44.19;103224.84;7315249;19;134126;-68
2022/01/17 06:14:23;;;;;;;6.63;5.63;;;;;;;20.90;44.61;103236.16;7314476;19;129351;-67
2022/01/17 06:16:50;;;;;;;6.30;5.15;;;;;;;20.84;44.43;103236.13;7314851;19;131254;-65
2022/01/17 06:19:17;;;;;;;6.72;5.13;;;;;;;20.78;44.37;103232.25;7316459;19;131145;-67
2022/01/17 06:21:44;;;;;;;6.32;5.32;;;;;;;20.72;44.86;103242.25;7313236;19;131023;-67
2022/01/17 06:24:16;;;;;;;8.00;5.65;;;;;;;20.66;44.68;103234.69;7312161;19;129117;-66
2022/01/17 06:26:43;;;;;;;10.15;5.15;;;;;;;20.60;44.26;103250.28;7307050;19;129320;-66
2022/01/17 06:29:13;;;;;;;8.88;5.82;;;;;;;20.56;44.29;103264.78;7312688;19;131550;-66
2022/01/17 06:31:42;;;;;;;10.20;5.72;;;;;;;20.53;44.11;103265.19;7310527;19;130531;-66
2022/01/17 06:34:10;;;;;;;12.82;6.40;;;;;;;20.53;43.45;103260.50;7313911;19;129060;-66
2022/01/17 06:36:41;;;;;;;10.57;5.90;;;;;;;20.54;43.34;103253.00;7316712;19;130201;-67
2022/01/17 06:39:08;;;;;;;10.60;5.80;;;;;;;20.56;43.13;103248.13;7315050;19;130887;-66
2022/01/17 06:41:35;;;;;;;8.55;6.50;;;;;;;20.59;43.15;103259.69;7314659;19;131647;-67
2022/01/17 06:44:02;;;;;;;10.68;6.05;;;;;;;20.64;43.46;103275.75;7311801;19;128785;-66
2022/01/17 06:46:29;;;;;;;12.30;5.65;;;;;;;20.72;43.14;103280.31;7314842;19;129007;-67
2022/01/17 06:48:56;;;;;;;12.38;6.00;;;;;;;20.80;42.75;103269.03;7307413;19;131238;-65
2022/01/17 06:51:23;;;;;;;9.13;5.18;;;;;;;20.89;42.64;103259.50;7313958;19;131420;-66
2022/01/17 06:53:50;;;;;;;12.38;5.43;;;;;;;20.98;42.39;103270.44;7311354;19;129087;-67
2022/01/17 06:56:18;;;;;;;9.95;5.25;;;;;;;21.06;42.44;103281.41;7313764;19;129344;-66
2022/01/17 06:58:44;;;;;;;8.00;5.80;;;;;;;21.14;42.49;103278.47;7316120;19;131283;-66
2022/01/17 07:01:13;;;;;;;9.00;5.40;;;;;;;21.21;41.93;103268.22;7315060;19;130378;-66
2022/01/17 07:03:41;;;;;;;7.50;5.15;;;;;;;21.31;42.31;103278.09;7315072;19;128898;-66
2022/01/17 07:06:08;;;;;;;8.30;5.28;;;;;;;21.37;41.82;103293.97;7312986;19;129125;-66
2022/01/17 07:08:35;;;;;;;13.88;5.20;;;;;;;21.46;41.69;103303.03;7316818;19;130602;-66
2022/01/17 07:11:02;;;;;;;8.93;4.97;;;;;;;21.54;41.22;103327.09;7311024;19;130395;-66
2022/01/17 07:13:29;;;;;;;9.88;5.85;;;;;;;21.60;41.00;103332.66;7316407;19;129356;-66
2022/01/17 07:15:55;;;;;;;9.52;6.22;;;;;;;21.64;41.11;103327.56;7312197;19;128919;-66
2022/01/17 07:18:22;;;;;;;8.40;5.80;;;;;;;21.68;40.88;103323.25;7315104;19;130610;-65
2022/01/17 07:20:49;;;;;;;10.43;6.10;;;;;;;21.71;41.00;103322.00;7312651;19;130580;-67
2022/01/17 07:23:16;;;;;;;7.47;5.55;;;;;;;21.73;40.59;103309.56;7313896;19;128805;-66
2022/01/17 07:25:43;;;;;;;10.50;5.85;;;;;;;21.74;40.77;103293.69;7314999;19;130881;-66
2022/01/17 07:28:10;;;;;;;8.93;6.00;;;;;;;21.75;40.51;103287.94;7310636;19;130751;-66
2022/01/17 07:30:37;;;;;;;11.73;6.78;;;;;;;21.79;39.74;103280.84;7315830;19;130524;-66
2022/01/17 07:33:05;;;;;;;11.48;6.28;;;;;;;21.82;39.54;103294.38;7311789;19;129086;-65
2022/01/17 07:35:33;;;;;;;11.75;6.75;;;;;;;21.85;39.01;103289.44;7313617;19;129271;-66
2022/01/17 07:38:00;;;;;;;9.93;6.20;;;;;;;21.86;39.00;103285.59;7310391;19;130656;-67
2022/01/17 07:40:26;;;;;;;9.85;6.07;;;;;;;21.87;38.72;103284.53;7314869;19;130827;-67
2022/01/17 07:42:53;;;;;;;17.33;6.32;;;;;;;21.91;38.84;103295.03;7312801;19;128908;-67
2022/01/17 07:45:21;;;;;;;11.02;6.40;;;;;;;21.96;38.49;103295.28;7308600;19;128951;-66
2022/01/17 07:50:21;;;;;;;11.80;5.85;;;;;;;22.08;38.26;103286.28;7312497;19;131765;-66
2022/01/17 07:52:51;;;;;;;7.05;5.53;;;;;;;22.15;38.37;103289.09;7315063;19;129068;-66
2022/01/17 07:55:19;;;;;;;8.77;5.40;;;;;;;22.22;38.32;103288.03;7312127;19;131152;-67
2022/01/17 07:57:47;;;;;;;9.20;4.90;;;;;;;22.32;38.27;103289.56;7314324;19;129439;-66
2022/01/17 08:00:20;;;;;;;9.02;5.03;;;;;;;22.39;38.37;103288.47;7310544;19;130760;-66
2022/01/17 08:02:49;;;;;;;10.77;5.10;;;;;;;22.48;38.64;103293.84;7312832;19;129671;-67
2022/01/17 08:05:16;;;;;;;7.90;4.78;;;;;;;22.54;38.29;103299.41;7311672;19;129259;-67
2022/01/17 08:07:44;;;;;;;7.15;4.55;;;;;;;22.62;38.08;103301.13;7312566;19;130847;-66
2022/01/17 08:10:12;;;;;;;7.75;5.20;;;;;;;22.69;38.22;103303.91;7314679;19;130850;-66
2022/01/17 08:12:46;;;;;;;7.68;4.40;;;;;;;22.76;38.19;103306.69;7310762;19;128705;-66
2022/01/17 08:15:14;;;;;;;6.80;5.00;;;;;;;22.81;38.25;103295.72;7315088;19;130025;-67
2022/01/17 08:17:41;;;;;;;8.40;4.72;;;;;;;22.84;38.14;103317.63;7311405;19;130777;-66
2022/01/17 08:20:09;;;;;;;6.25;4.55;;;;;;;22.86;38.26;103324.69;7312771;19;131484;-66
2022/01/17 08:22:35;;;;;;;10.70;4.75;;;;;;;22.85;38.06;103328.53;7309971;19;129014;-66
2022/01/17 08:25:03;;;;;;;7.55;4.97;;;;;;;22.83;38.14;103324.28;7310426;19;130167;-66
2022/01/17 08:27:29;;;;;;;7.32;5.43;;;;;;;22.78;38.26;103343.59;7311586;19;130442;-66
2022/01/17 08:29:57;;;;;;;5.85;4.60;;;;;;;22.71;38.22;103351.97;7310755;19;131218;-66
2022/01/17 08:32:43;;;;;;;9.48;4.60;;;;;;;22.63;38.07;103358.63;7312777;19;128779;-66
2022/01/17 08:35:11;;;;;;;7.07;4.65;;;;;;;22.56;38.53;103357.75;7308425;19;128909;-66
2022/01/17 08:37:38;;;;;;;8.48;5.07;;;;;;;22.46;38.74;103361.00;7312221;19;130864;-66
2022/01/17 08:40:11;;;;;;;8.25;4.45;;;;;;;22.36;38.81;103369.78;7308250;19;130459;-66
2022/01/17 08:42:38;;;;;;;6.20;4.80;;;;;;;22.26;39.20;103364.59;7311314;19;128875;-66
2022/01/17 08:45:10;;;;;;;6.22;4.30;;;;;;;22.17;39.28;103332.41;7309986;19;129676;-66
2022/01/17 08:47:57;;;;;;;7.68;4.72;;;;;;;22.08;39.08;103340.09;7309189;19;132658;-66
2022/01/17 08:50:24;;;;;;;7.10;4.50;;;;;;;22.01;39.39;103324.41;7317791;19;131364;-66
2022/01/17 08:52:50;;;;;;;6.22;4.70;;;;;;;21.92;39.38;103338.56;7315483;19;129363;-65
2022/01/17 08:55:17;;;;;;;7.10;4.47;;;;;;;21.83;39.72;103337.88;7318430;19;129133;-65
2022/01/17 08:57:44;;;;;;;9.20;4.93;;;;;;;21.79;39.49;103346.88;7315436;19;130447;-65
2022/01/17 09:00:17;;;;;;;5.00;4.32;;;;;;;21.75;39.65;103351.16;7317768;19;130628;-65
2022/01/17 09:03:02;;;;;;;7.00;4.45;;;;;;;21.70;40.14;103340.63;7318855;19;130173;-66
2022/01/17 09:05:31;;;;;;;6.88;4.70;;;;;;;21.65;39.78;103332.91;7315408;19;128986;-65
2022/01/17 09:07:58;;;;;;;6.30;5.00;;;;;;;21.62;39.83;103335.25;7318401;19;130787;-66
2022/01/17 09:10:25;;;;;;;5.82;4.20;;;;;;;21.57;40.12;103337.78;7314911;19;130454;-65
2022/01/17 09:12:53;;;;;;;6.20;4.68;;;;;;;21.54;40.33;103343.78;7319402;19;128716;-66
2022/01/17 09:15:20;;;;;;;6.70;4.60;;;;;;;21.49;39.91;103348.06;7313859;19;129918;-65
2022/01/17 09:17:47;;;;;;;7.63;4.88;;;;;;;21.46;40.23;103347.59;7317461;19;130557;-67
2022/01/17 09:20:14;;;;;;;7.95;4.82;;;;;;;21.41;40.02;103362.13;7314388;19;130537;-67
2022/01/17 09:22:41;;;;;;;7.45;4.82;;;;;;;21.37;40.33;103371.94;7317233;19;129465;-65
2022/01/17 09:25:09;;;;;;;9.32;4.68;;;;;;;21.33;40.22;103377.06;7317637;19;129271;-67
2022/01/17 09:27:42;;;;;;;6.35;4.65;;;;;;;21.29;40.47;103391.63;7317617;19;130647;-66
2022/01/17 09:30:12;;;;;;;6.05;4.65;;;;;;;21.21;40.27;103396.25;7320060;19;130445;-65
2022/01/17 09:32:40;;;;;;;6.40;4.43;;;;;;;21.16;40.38;103404.38;7315244;19;129080;-65
2022/01/17 09:35:08;;;;;;;7.05;4.50;;;;;;;21.14;40.26;103400.94;7319066;19;128964;-66
2022/01/17 09:37:35;;;;;;;6.10;4.25;;;;;;;21.14;40.86;103406.50;7314561;19;130634;-66
2022/01/17 09:40:03;;;;;;;7.00;4.25;;;;;;;21.18;40.62;103391.09;7317119;19;131266;-65
2022/01/17 09:42:35;;;;;;;7.00;4.15;;;;;;;21.22;40.68;103398.00;7312765;19;129895;-65
2022/01/17 09:45:22;;;;;;;7.75;4.25;;;;;;;21.30;40.67;103405.31;7316674;19;130684;-66
2022/01/17 09:47:49;;;;;;;5.90;3.80;;;;;;;21.36;40.35;103409.22;7319358;19;130802;-66
2022/01/17 09:50:31;;;;;;;6.25;4.18;;;;;;;21.44;40.52;103416.53;7315419;19;130632;-66
2022/01/17 09:53:00;;;;;;;4.97;3.85;;;;;;;21.49;40.54;103420.47;7318236;19;129086;-66
2022/01/17 09:55:30;;;;;;;6.20;4.30;;;;;;;21.57;40.43;103429.72;7315726;19;129053;-67
2022/01/17 09:58:05;;;;;;;4.97;3.80;;;;;;;21.64;40.38;103441.75;7316789;19;130679;-66
2022/01/17 10:00:35;;;;;;;13.20;3.90;;;;;;;21.68;40.45;103426.34;7316627;19;130554;-66
2022/01/17 10:03:06;;;;;;;9.02;4.38;;;;;;;21.73;40.33;103421.00;7314058;19;129604;-65
2022/01/17 10:05:35;;;;;;;5.72;4.15;;;;;;;21.79;39.72;103420.16;7317001;19;128949;-66
2022/01/17 10:08:07;;;;;;;7.80;4.28;;;;;;;21.84;40.09;103394.50;7313906;19;130859;-66
2022/01/17 10:10:35;;;;;;;5.50;3.97;;;;;;;21.90;39.73;103392.81;7315350;19;130492;-66
2022/01/17 10:13:11;;;;;;;4.97;3.47;;;;;;;21.95;40.01;103426.47;7314344;19;128781;-66
2022/01/17 10:15:46;;;;;;;7.60;3.58;;;;;;;22.00;39.94;103404.41;7316969;19;129666;-66
2022/01/17 10:18:28;;;;;;;7.38;3.60;;;;;;;22.03;40.10;103403.97;7317487;19;130698;-66
2022/01/17 10:21:31;;;;;;;4.95;3.15;;;;;;;22.05;39.90;103418.56;7315195;19;131499;-66
2022/01/17 10:24:15;;;;;;;5.68;3.45;;;;;;;22.11;39.94;103434.47;7316852;19;129691;-66
2022/01/17 10:37:22;;;;;;;6.07;3.40;;;;;;;22.24;39.25;103467.13;7315205;19;128855;-66
2022/01/17 10:40:13;;;;;;;7.60;3.72;;;;;;;22.27;39.27;103454.72;7312498;19;130711;-66
2022/01/17 10:42:46;;;;;;;5.57;3.70;;;;;;;22.26;39.45;103447.41;7314254;19;131252;-66
2022/01/17 10:45:20;;;;;;;5.18;3.42;;;;;;;22.23;39.15;103440.31;7316262;19;128972;-66
2022/01/17 10:47:50;;;;;;;7.15;3.30;;;;;;;22.22;39.54;103440.53;7313421;19;128955;-66
2022/01/17 10:50:25;;;;;;;6.88;3.65;;;;;;;22.20;39.54;103457.44;7316133;19;130594;-66
2022/01/17 10:52:55;;;;;;;6.43;3.20;;;;;;;22.19;39.72;103463.22;7313993;19;130639;-66
2022/01/17 10:55:41;;;;;;;5.50;3.00;;;;;;;22.17;39.33;103456.97;7315334;19;129499;-66
2022/01/17 10:58:15;;;;;;;5.20;3.17;;;;;;;22.15;39.63;103467.50;7316381;19;130035;-66
2022/01/17 11:00:44;;;;;;;4.75;2.72;;;;;;;22.12;39.64;103466.84;7314168;19;130370;-67
2022/01/17 11:03:14;;;;;;;6.35;2.85;;;;;;;22.10;39.70;103471.78;7315898;19;131199;-66
2022/01/17 11:05:44;;;;;;;5.88;3.35;;;;;;;22.08;39.21;103473.91;7312771;19;128915;-64
2022/01/17 11:08:13;;;;;;;4.68;3.05;;;;;;;22.05;39.43;103479.03;7316235;19;128886;-66
2022/01/17 11:10:52;;;;;;;7.00;3.15;;;;;;;22.04;39.65;103480.09;7313878;19;130680;-66
2022/01/17 11:13:21;;;;;;;6.38;3.70;;;;;;;22.02;39.49;103480.31;7314593;19;131041;-67
2022/01/17 11:15:57;;;;;;;5.88;3.20;;;;;;;22.02;39.63;103485.03;7315963;19;129312;-66
2022/01/17 11:18:27;;;;;;;5.45;3.38;;;;;;;21.99;39.53;103489.09;7313196;19;128948;-66
2022/01/17 11:21:06;;;;;;;6.00;3.35;;;;;;;21.99;39.75;103483.53;7316375;19;130819;-66
2022/01/17 11:23:32;;;;;;;5.60;3.20;;;;;;;21.97;39.46;103480.06;7312913;19;132235;-65
2022/01/17 11:25:59;;;;;;;4.13;2.63;;;;;;;21.97;39.52;103474.50;7315033;19;129299;-66
2022/01/17 11:28:28;;;;;;;8.43;3.20;;;;;;;21.95;39.57;103459.91;7312360;19;129211;-66
2022/01/17 11:31:04;;;;;;;6.15;2.97;;;;;;;21.94;39.29;103463.75;7313661;19;131268;-66
2022/01/17 11:33:31;;;;;;;6.32;3.15;;;;;;;21.93;39.86;103445.31;7316074;19;130507;-66
2022/01/17 11:35:58;;;;;;;6.07;3.17;;;;;;;21.90;39.56;103448.53;7313564;19;128923;-66
2022/01/17 11:38:40;;;;;;;8.07;3.53;;;;;;;21.90;39.49;103443.81;7315477;19;129305;-66
2022/01/17 11:41:22;;;;;;;7.72;3.38;;;;;;;21.86;39.23;103442.50;7311170;19;130498;-66
2022/01/17 11:44:01;;;;;;;9.88;3.30;;;;;;;21.81;38.79;103451.47;7314506;19;130545;-67
2022/01/17 11:46:30;;;;;;;9.32;3.60;;;;;;;21.79;38.95;103452.75;7312650;19;130740;-67
2022/01/17 11:49:04;;;;;;;8.45;2.95;;;;;;;21.78;38.86;103463.06;7313997;19;132644;-67